Time;durP1;ratioP1;P1;durP2;ratioP2;P2;SDS_P1;SDS_P2;PMS_P1;PMS_P2;Temp;Humidity;BMP_temperature;BMP_pressure;BME280_temperature;BME280_humidity;BME280_pressure;Samples;Min_cycle;Max_cycle;Signal;HPM_P1;HPM_P2
2022/08/25 00:01:54;;;;;;;12.60;6.72;;;20.30;72.60;;;;;;5036196;28;20086;-11
2022/08/25 00:04:21;;;;;;;5.85;5.00;;;20.30;72.80;;;;;;5036091;28;20021;-11
2022/08/25 00:06:48;;;;;;;7.80;5.43;;;20.20;72.80;;;;;;5035533;28;20036;-11
2022/08/25 00:09:18;;;;;;;6.45;5.30;;;20.20;73.00;;;;;;5035951;28;20528;-11
2022/08/25 00:11:48;;;;;;;8.20;6.55;;;20.20;73.20;;;;;;5035646;28;20032;-11
2022/08/25 00:14:26;;;;;;;9.25;5.70;;;20.30;73.30;;;;;;5035664;28;20481;-11
2022/08/25 00:16:53;;;;;;;7.13;5.85;;;20.20;73.60;;;;;;5035829;28;20022;-12
2022/08/25 00:19:24;;;;;;;8.45;5.40;;;20.20;73.40;;;;;;5035669;28;20500;-10
2022/08/25 00:21:50;;;;;;;7.88;5.20;;;20.10;73.40;;;;;;5034370;28;20026;-11
2022/08/25 00:24:18;;;;;;;7.30;5.22;;;20.10;73.30;;;;;;5035767;28;20100;-11
2022/08/25 00:26:46;;;;;;;10.55;6.13;;;20.10;73.40;;;;;;5035426;28;20121;-11
2022/08/25 00:29:13;;;;;;;9.43;7.30;;;20.00;73.30;;;;;;5035005;28;20088;-11
2022/08/25 00:31:40;;;;;;;6.82;5.25;;;20.00;73.40;;;;;;5035282;28;20049;-10
2022/08/25 00:34:10;;;;;;;8.32;6.35;;;20.00;73.70;;;;;;5035227;28;20037;-11
2022/08/25 00:36:37;;;;;;;9.35;6.38;;;20.00;73.70;;;;;;5035132;28;20084;-11
2022/08/25 00:39:05;;;;;;;7.68;5.63;;;20.00;73.50;;;;;;5034874;28;20044;-11
2022/08/25 00:41:32;;;;;;;7.28;5.28;;;20.00;73.30;;;;;;5035378;28;20033;-10
2022/08/25 00:44:02;;;;;;;7.35;5.53;;;20.00;73.30;;;;;;5035378;28;20025;-11
2022/08/25 00:46:34;;;;;;;7.55;5.65;;;20.00;73.60;;;;;;5035030;28;20158;-13
2022/08/25 00:49:06;;;;;;;6.55;5.22;;;19.90;73.80;;;;;;5034820;28;20093;-11
2022/08/25 00:51:37;;;;;;;6.30;5.20;;;19.90;73.60;;;;;;5034939;28;20500;-11
2022/08/25 00:54:06;;;;;;;8.05;5.90;;;19.90;73.90;;;;;;5034922;28;20025;-11
2022/08/25 00:56:34;;;;;;;8.15;5.63;;;19.90;74.10;;;;;;5035118;28;20048;-12
2022/08/25 00:59:01;;;;;;;6.80;5.15;;;19.90;74.20;;;;;;5034564;28;20433;-11
2022/08/25 01:01:29;;;;;;;9.10;5.90;;;19.80;73.90;;;;;;5034708;28;20473;-12
2022/08/25 01:03:55;;;;;;;12.25;9.75;;;19.80;74.30;;;;;;5035118;28;20033;-11
2022/08/25 01:06:23;;;;;;;10.27;7.88;;;19.70;77.00;;;;;;5034624;28;20096;-11
2022/08/25 01:08:50;;;;;;;12.38;7.90;;;19.70;75.90;;;;;;5034659;28;20151;-11
2022/08/25 01:11:17;;;;;;;10.23;6.88;;;19.70;75.40;;;;;;5035148;28;20053;-12
2022/08/25 01:13:55;;;;;;;8.88;7.05;;;19.70;75.40;;;;;;5035100;28;20021;-12
2022/08/25 01:16:22;;;;;;;11.20;6.55;;;19.70;75.30;;;;;;5035087;28;20043;-12
2022/08/25 01:18:55;;;;;;;8.93;6.70;;;19.60;75.30;;;;;;5034301;28;20032;-13
2022/08/25 01:21:22;;;;;;;;;;;19.60;75.30;;;;;;5034654;28;20017;-11
2022/08/25 01:23:49;;;;;;;9.27;6.20;;;19.60;76.30;;;;;;5034525;28;19996;-11
2022/08/25 01:26:26;;;;;;;10.32;7.70;;;19.50;75.10;;;;;;5034548;28;20068;-11
2022/08/25 01:31:37;;;;;;;8.45;6.15;;;19.50;75.10;;;;;;5034365;28;20064;-11
2022/08/25 01:34:05;;;;;;;9.65;6.25;;;19.40;75.00;;;;;;5034472;28;20029;-11
2022/08/25 01:36:33;;;;;;;10.38;7.57;;;19.40;75.10;;;;;;5033958;28;20393;-11
2022/08/25 01:38:59;;;;;;;11.38;7.25;;;19.40;75.20;;;;;;5032678;28;20421;-11
2022/08/25 01:41:57;;;;;;;9.98;6.28;;;19.40;75.30;;;;;;5033998;28;20496;-11
2022/08/25 01:44:24;;;;;;;14.73;10.13;;;19.40;75.40;;;;;;5034321;28;20024;-11
2022/08/25 01:46:52;;;;;;;8.85;6.85;;;19.40;75.60;;;;;;5033776;28;20103;-11
2022/08/25 01:49:18;;;;;;;9.88;7.75;;;19.40;75.60;;;;;;5033996;28;20385;-12
2022/08/25 01:51:54;;;;;;;11.88;9.32;;;19.40;75.50;;;;;;5033239;28;20036;-11
2022/08/25 01:54:20;;;;;;;12.43;10.25;;;19.30;75.70;;;;;;5034102;28;20033;-11
2022/08/25 01:56:46;;;;;;;12.77;10.02;;;19.40;76.00;;;;;;5033724;28;20486;-11
2022/08/25 01:59:16;;;;;;;9.38;7.30;;;19.40;76.00;;;;;;5033998;28;20052;-11
2022/08/25 02:01:42;;;;;;;10.13;7.25;;;19.40;76.00;;;;;;5033588;28;20030;-12
2022/08/25 02:04:08;;;;;;;13.18;8.50;;;19.40;75.80;;;;;;5033568;28;20033;-12
2022/08/25 02:06:34;;;;;;;10.35;7.97;;;19.50;75.80;;;;;;5033447;28;20044;-11
2022/08/25 02:09:10;;;;;;;15.60;6.80;;;19.50;75.80;;;;;;5032022;28;20485;-11
2022/08/25 02:11:37;;;;;;;8.23;6.70;;;19.50;75.80;;;;;;5033552;28;20029;-10
2022/08/25 02:14:04;;;;;;;9.65;7.15;;;19.40;75.70;;;;;;5033441;28;20064;-10
2022/08/25 02:16:35;;;;;;;10.98;8.30;;;19.40;75.80;;;;;;5033401;28;20036;-10
2022/08/25 02:19:03;;;;;;;11.98;8.88;;;19.40;76.00;;;;;;5033201;28;20025;-10
2022/08/25 02:21:29;;;;;;;8.75;7.05;;;19.40;76.00;;;;;;5033233;28;20025;-11
2022/08/25 02:23:55;;;;;;;11.68;8.85;;;19.30;76.00;;;;;;5033539;28;20488;-11
2022/08/25 02:26:22;;;;;;;10.60;6.85;;;19.30;76.10;;;;;;5033655;28;20034;-11
2022/08/25 02:28:49;;;;;;;8.80;6.68;;;19.30;76.30;;;;;;5032994;28;20064;-11
2022/08/25 02:31:19;;;;;;;11.00;7.47;;;19.20;76.20;;;;;;5033119;28;20087;-11
2022/08/25 02:33:45;;;;;;;14.15;10.70;;;19.20;76.30;;;;;;5033198;28;20033;-12
2022/08/25 02:36:12;;;;;;;13.45;8.68;;;19.20;76.30;;;;;;5033038;28;20049;-11
2022/08/25 02:38:39;;;;;;;12.43;9.45;;;19.20;76.70;;;;;;5033715;28;20025;-11
2022/08/25 02:41:11;;;;;;;10.38;8.10;;;19.20;76.70;;;;;;5032903;28;20017;-12
2022/08/25 02:43:38;;;;;;;14.68;11.07;;;19.10;76.90;;;;;;5033360;28;20025;-11
2022/08/25 02:46:04;;;;;;;9.43;7.38;;;19.10;77.00;;;;;;5033014;28;20078;-11
2022/08/25 02:48:30;;;;;;;11.25;8.05;;;19.20;76.90;;;;;;5032973;28;20033;-11
2022/08/25 02:51:00;;;;;;;12.65;9.82;;;19.10;76.80;;;;;;5033279;28;20032;-11
2022/08/25 02:53:28;;;;;;;10.25;7.25;;;19.20;76.80;;;;;;5032990;28;20037;-11
2022/08/25 02:55:54;;;;;;;13.93;9.55;;;19.10;76.90;;;;;;5032976;28;20497;-11
2022/08/25 02:58:20;;;;;;;12.48;10.23;;;19.10;76.90;;;;;;5033075;28;20030;-10
2022/08/25 03:00:48;;;;;;;11.98;8.70;;;19.10;77.10;;;;;;5032864;28;20036;-10
2022/08/25 03:03:14;;;;;;;11.63;8.55;;;19.10;77.20;;;;;;5036666;28;20152;-10
2022/08/25 03:05:40;;;;;;;12.52;9.90;;;19.10;77.30;;;;;;5036068;28;20061;-10
2022/08/25 03:08:07;;;;;;;13.95;10.90;;;19.10;77.20;;;;;;5037696;28;20030;-11
2022/08/25 03:10:34;;;;;;;13.65;8.68;;;19.10;77.30;;;;;;5036816;28;20020;-11
2022/08/25 03:13:00;;;;;;;9.95;7.50;;;19.00;77.40;;;;;;5036890;28;20041;-11
2022/08/25 03:15:26;;;;;;;10.32;7.60;;;19.00;77.20;;;;;;5037030;28;20497;-11
2022/08/25 03:17:54;;;;;;;11.38;8.15;;;19.00;77.20;;;;;;5036749;28;20029;-11
2022/08/25 03:20:21;;;;;;;10.77;7.10;;;19.00;77.30;;;;;;5036491;28;20501;-11
2022/08/25 03:22:48;;;;;;;9.50;7.35;;;19.00;77.20;;;;;;5035154;28;20025;-11
2022/08/25 03:27:59;;;;;;;8.50;6.65;;;19.00;77.20;;;;;;5036732;28;20524;-11
2022/08/25 03:30:26;;;;;;;8.32;6.65;;;19.00;77.10;;;;;;5035167;28;20093;-12
2022/08/25 03:32:52;;;;;;;8.77;7.13;;;19.00;77.00;;;;;;5036506;28;20021;-11
2022/08/25 03:35:18;;;;;;;10.02;8.25;;;19.00;77.30;;;;;;5036223;28;20068;-11
2022/08/25 03:37:44;;;;;;;9.05;6.75;;;19.00;77.10;;;;;;5036303;28;20021;-11
2022/08/25 03:40:13;;;;;;;9.70;6.78;;;19.00;77.00;;;;;;5036341;28;20018;-11
2022/08/25 03:42:44;;;;;;;10.63;7.18;;;19.00;76.90;;;;;;5036243;28;20505;-11
2022/08/25 03:45:12;;;;;;;9.13;7.05;;;19.00;76.90;;;;;;5036249;28;20026;-11
2022/08/25 03:47:39;;;;;;;8.98;7.35;;;19.00;76.90;;;;;;5036146;28;20062;-11
2022/08/25 03:50:07;;;;;;;8.75;5.90;;;19.00;77.10;;;;;;5035915;28;20022;-11
2022/08/25 03:52:34;;;;;;;8.50;6.85;;;19.10;77.00;;;;;;5036345;28;20179;-11
2022/08/25 03:55:01;;;;;;;9.65;6.32;;;19.10;76.90;;;;;;5036126;28;20036;-11
2022/08/25 03:57:27;;;;;;;9.70;6.53;;;19.10;76.80;;;;;;5035958;28;20034;-11
2022/08/25 03:59:54;;;;;;;7.80;6.25;;;19.10;76.70;;;;;;5035899;28;20020;-12
2022/08/25 04:02:20;;;;;;;8.27;6.45;;;19.10;76.60;;;;;;5035895;28;20060;-11
2022/08/25 04:04:45;;;;;;;10.40;6.32;;;19.10;76.60;;;;;;5035727;28;20107;-10
2022/08/25 04:07:11;;;;;;;8.48;6.32;;;19.10;76.70;;;;;;5035672;28;20029;-10
2022/08/25 04:09:37;;;;;;;7.32;5.32;;;19.10;76.60;;;;;;5036004;28;20060;-10
2022/08/25 04:12:04;;;;;;;7.55;5.90;;;19.10;76.60;;;;;;5036016;28;20041;-11
2022/08/25 04:14:30;;;;;;;10.70;6.35;;;19.00;76.70;;;;;;5035130;28;20052;-11
2022/08/25 04:16:56;;;;;;;8.45;5.55;;;19.00;76.80;;;;;;5035371;28;20147;-12
2022/08/25 04:19:22;;;;;;;7.20;5.70;;;19.00;77.00;;;;;;5035806;28;20580;-11
2022/08/25 04:21:48;;;;;;;7.75;5.65;;;18.90;77.30;;;;;;5035752;28;20021;-11
2022/08/25 04:24:15;;;;;;;9.25;5.78;;;18.90;77.50;;;;;;5036060;28;20101;-11
2022/08/25 04:26:48;;;;;;;11.52;8.13;;;18.80;77.40;;;;;;5035431;28;20025;-12
2022/08/25 04:29:17;;;;;;;10.27;6.70;;;18.80;77.50;;;;;;5035133;28;20128;-11
2022/08/25 04:31:49;;;;;;;8.45;6.53;;;18.80;77.60;;;;;;5035560;28;20026;-11
2022/08/25 04:34:19;;;;;;;7.93;6.07;;;18.80;77.70;;;;;;5035340;28;20025;-12
2022/08/25 04:36:45;;;;;;;8.68;6.78;;;18.80;77.70;;;;;;5035303;28;20025;-11
2022/08/25 04:39:12;;;;;;;10.30;6.63;;;18.80;77.70;;;;;;5034935;28;20079;-12
2022/08/25 04:41:38;;;;;;;12.00;7.88;;;18.80;77.60;;;;;;5035257;28;20025;-11
2022/08/25 04:44:05;;;;;;;8.07;6.18;;;18.80;77.60;;;;;;5035065;28;20075;-11
2022/08/25 04:46:33;;;;;;;11.98;7.55;;;18.90;77.60;;;;;;5035037;28;20037;-11
2022/08/25 04:49:00;;;;;;;14.52;7.95;;;18.90;77.60;;;;;;5034717;28;20025;-11
2022/08/25 04:51:33;;;;;;;12.75;8.77;;;18.90;77.50;;;;;;5035051;28;20029;-11
2022/08/25 04:54:01;;;;;;;15.63;9.40;;;19.00;77.50;;;;;;5035189;28;20033;-12
2022/08/25 04:56:28;;;;;;;12.45;7.35;;;19.00;77.40;;;;;;5035014;28;20018;-11
2022/08/25 04:58:55;;;;;;;13.70;8.70;;;19.10;77.60;;;;;;5034583;28;20497;-11
2022/08/25 05:01:24;;;;;;;11.73;8.10;;;19.20;77.30;;;;;;5035056;28;20026;-11
2022/08/25 05:03:59;;;;;;;15.38;9.27;;;19.20;77.20;;;;;;5035857;28;20025;-11
2022/08/25 05:06:27;;;;;;;9.02;6.65;;;19.30;77.10;;;;;;5034736;28;20485;-11
2022/08/25 05:08:54;;;;;;;11.80;7.53;;;19.40;76.90;;;;;;5034397;28;20033;-12
2022/08/25 05:11:21;;;;;;;14.45;9.20;;;19.40;76.70;;;;;;5034886;28;20030;-12
2022/08/25 05:13:49;;;;;;;11.57;8.77;;;19.50;76.50;;;;;;5034474;28;20022;-10
2022/08/25 05:16:16;;;;;;;11.90;8.85;;;19.60;76.40;;;;;;5033203;28;20117;-12
2022/08/25 05:18:43;;;;;;;12.80;9.23;;;19.70;76.40;;;;;;5034542;28;20104;-11
2022/08/25 05:21:13;;;;;;;12.55;9.90;;;19.80;76.30;;;;;;5034318;28;20032;-13
2022/08/25 05:23:40;;;;;;;12.77;8.85;;;19.90;76.40;;;;;;5034609;28;20026;-11
2022/08/25 05:26:12;;;;;;;12.27;8.70;;;20.00;76.30;;;;;;5034232;28;20076;-12
2022/08/25 05:28:40;;;;;;;11.50;7.43;;;20.00;76.20;;;;;;5034374;28;20073;-10
2022/08/25 05:31:08;;;;;;;12.00;8.70;;;20.10;76.10;;;;;;5033883;28;20042;-11
2022/08/25 05:33:36;;;;;;;11.80;8.20;;;20.20;76.00;;;;;;5034441;28;20029;-11
2022/08/25 05:36:03;;;;;;;15.52;7.97;;;20.30;75.90;;;;;;5034300;28;20021;-11
2022/08/25 05:38:29;;;;;;;9.50;7.47;;;20.40;75.80;;;;;;5034344;28;20040;-11
2022/08/25 05:41:02;;;;;;;8.45;6.40;;;20.40;75.60;;;;;;5033801;28;20017;-11
2022/08/25 05:43:29;;;;;;;11.10;7.97;;;20.60;75.40;;;;;;5034294;28;20021;-12
2022/08/25 05:45:57;;;;;;;10.25;6.68;;;20.70;75.30;;;;;;5033880;28;20389;-12
2022/08/25 05:48:24;;;;;;;8.05;6.13;;;20.80;75.00;;;;;;5033814;28;20075;-12
2022/08/25 05:50:58;;;;;;;9.60;6.55;;;20.90;74.70;;;;;;5033539;28;20033;-12
2022/08/25 05:53:27;;;;;;;8.73;6.70;;;21.00;74.50;;;;;;5034340;28;20025;-11
2022/08/25 05:55:54;;;;;;;7.78;6.03;;;21.20;74.20;;;;;;5033971;28;20159;-11
2022/08/25 05:58:21;;;;;;;11.98;6.82;;;21.30;73.80;;;;;;5034369;28;20034;-12
2022/08/25 06:00:48;;;;;;;9.63;6.90;;;21.40;73.50;;;;;;5033487;28;20037;-12
2022/08/25 06:03:14;;;;;;;13.55;7.78;;;21.50;73.20;;;;;;5033895;28;20028;-11
2022/08/25 06:05:40;;;;;;;10.35;6.78;;;21.70;72.80;;;;;;5033723;28;20034;-11
2022/08/25 06:08:06;;;;;;;12.70;6.93;;;21.80;72.50;;;;;;5033521;28;20029;-10
2022/08/25 06:10:33;;;;;;;11.38;6.03;;;21.90;72.20;;;;;;5033437;28;20025;-11
2022/08/25 06:12:59;;;;;;;9.05;7.43;;;22.00;71.90;;;;;;5033579;28;20033;-11
2022/08/25 06:15:26;;;;;;;10.90;7.20;;;22.10;71.70;;;;;;5033658;28;20444;-10
2022/08/25 06:17:53;;;;;;;18.38;14.73;;;22.30;71.30;;;;;;5033686;28;20105;-11
2022/08/25 06:20:26;;;;;;;12.95;9.45;;;22.40;71.10;;;;;;5033459;28;20021;-12
2022/08/25 06:22:52;;;;;;;10.30;7.60;;;22.50;71.10;;;;;;5033141;28;20355;-10
2022/08/25 06:25:21;;;;;;;13.23;8.70;;;22.60;70.90;;;;;;5033862;28;20371;-11
2022/08/25 06:27:48;;;;;;;14.90;9.65;;;22.70;70.60;;;;;;5033377;28;20049;-11
2022/08/25 06:30:16;;;;;;;9.13;6.85;;;22.90;70.40;;;;;;5033175;28;20038;-11
2022/08/25 06:32:44;;;;;;;9.20;6.50;;;22.90;70.20;;;;;;5033193;28;20025;-11
2022/08/25 06:35:15;;;;;;;11.55;6.63;;;23.10;70.10;;;;;;5032968;28;20104;-8
2022/08/25 06:37:41;;;;;;;10.30;6.70;;;23.20;70.00;;;;;;5033057;28;20017;-9
2022/08/25 06:40:09;;;;;;;10.23;7.03;;;23.40;69.90;;;;;;5033167;28;20176;-9
2022/08/25 06:42:35;;;;;;;7.15;5.10;;;23.50;69.70;;;;;;5033895;28;20425;-11
2022/08/25 06:45:02;;;;;;;8.85;5.90;;;23.60;69.70;;;;;;5033147;28;20379;-10
2022/08/25 06:47:28;;;;;;;12.25;6.53;;;23.70;69.50;;;;;;5033290;28;20061;-10
2022/08/25 06:49:54;;;;;;;7.70;5.90;;;23.90;69.20;;;;;;5033135;28;20496;-10
2022/08/25 06:52:20;;;;;;;10.40;6.70;;;24.00;68.80;;;;;;5033661;28;20025;-11
2022/08/25 06:54:46;;;;;;;8.05;5.40;;;24.20;68.30;;;;;;5033167;28;20033;-11
2022/08/25 06:57:12;;;;;;;12.52;5.90;;;24.30;68.20;;;;;;5032942;28;20034;-11
2022/08/25 06:59:38;;;;;;;7.57;5.57;;;24.40;67.80;;;;;;5033233;28;20037;-11
2022/08/25 07:02:05;;;;;;;9.30;5.80;;;24.60;67.50;;;;;;5033221;28;20017;-11
2022/08/25 07:04:33;;;;;;;7.95;5.55;;;24.80;67.20;;;;;;5033121;28;20520;-11
2022/08/25 07:07:00;;;;;;;7.30;5.30;;;25.00;66.60;;;;;;5032787;28;20021;-10
2022/08/25 07:09:27;;;;;;;6.18;4.55;;;25.20;65.80;;;;;;5033060;28;20120;-9
2022/08/25 07:11:53;;;;;;;6.50;4.50;;;25.40;65.10;;;;;;5032783;28;20017;-8
2022/08/25 07:14:19;;;;;;;7.75;5.53;;;25.70;64.80;;;;;;5032679;28;20036;-8
2022/08/25 07:16:48;;;;;;;8.10;4.60;;;25.90;64.00;;;;;;5031528;28;20018;-8
2022/08/25 07:19:14;;;;;;;8.57;4.80;;;26.00;62.80;;;;;;5033035;28;20099;-9
2022/08/25 07:21:44;;;;;;;8.35;5.50;;;26.10;63.00;;;;;;5032613;28;20481;-8
2022/08/25 07:24:12;;;;;;;5.72;4.10;;;26.30;62.60;;;;;;5032654;28;20029;-8
2022/08/25 07:26:41;;;;;;;7.65;4.32;;;26.40;62.00;;;;;;5032920;28;20486;-8
2022/08/25 07:29:12;;;;;;;5.00;3.92;;;26.50;61.30;;;;;;5032105;28;20065;-8
2022/08/25 07:31:38;;;;;;;6.97;4.32;;;26.70;61.10;;;;;;5032638;28;20470;-8
2022/08/25 07:36:50;;;;;;;5.53;4.20;;;27.20;59.40;;;;;;5032633;28;20095;-9
2022/08/25 07:39:16;;;;;;;5.57;4.22;;;27.40;58.80;;;;;;5032492;28;20480;-9
2022/08/25 07:41:43;;;;;;;5.43;4.07;;;27.50;57.80;;;;;;5032893;28;20037;-9
2022/08/25 07:44:11;;;;;;;4.65;3.88;;;27.60;57.70;;;;;;5032519;28;20025;-8
2022/08/25 07:46:38;;;;;;;6.80;4.55;;;27.80;57.50;;;;;;5032875;28;20044;-8
2022/08/25 07:49:06;;;;;;;6.00;3.80;;;27.90;57.30;;;;;;5032310;28;20072;-8
2022/08/25 07:51:32;;;;;;;5.55;3.70;;;28.10;56.80;;;;;;5034755;28;20041;-9
2022/08/25 07:53:59;;;;;;;5.40;4.10;;;28.30;56.60;;;;;;5036045;28;20397;-9
2022/08/25 07:56:25;;;;;;;5.70;4.30;;;28.50;55.60;;;;;;5036586;28;20108;-8
2022/08/25 07:58:51;;;;;;;6.20;4.00;;;28.80;54.50;;;;;;5036304;28;20021;-8
2022/08/25 08:01:20;;;;;;;4.95;4.10;;;29.10;54.50;;;;;;5036398;28;20489;-9
2022/08/25 08:03:47;;;;;;;4.75;3.75;;;29.50;53.60;;;;;;5036342;28;20029;-8
2022/08/25 08:06:16;;;;;;;5.68;4.20;;;29.80;53.00;;;;;;5035877;28;20029;-10
2022/08/25 08:08:44;;;;;;;6.38;4.57;;;30.10;52.50;;;;;;5035842;28;20017;-10
2022/08/25 08:11:35;;;;;;;7.30;4.00;;;30.40;51.50;;;;;;5034241;28;20477;-9
2022/08/25 08:14:03;;;;;;;5.93;3.97;;;30.70;49.70;;;;;;5036026;28;20052;-9
2022/08/25 08:16:30;;;;;;;8.35;4.32;;;30.90;49.20;;;;;;5035656;28;20029;-11
2022/08/25 08:18:57;;;;;;;7.03;4.80;;;31.10;49.00;;;;;;5035519;28;20111;-10
2022/08/25 08:21:27;;;;;;;5.70;4.45;;;31.40;47.60;;;;;;5035779;28;20160;-10
2022/08/25 08:23:53;;;;;;;5.78;4.50;;;31.50;47.50;;;;;;5034279;28;20079;-10
2022/08/25 08:26:20;;;;;;;5.93;4.40;;;31.60;47.70;;;;;;5035828;28;20022;-10
2022/08/25 08:28:46;;;;;;;6.38;4.00;;;31.90;47.70;;;;;;5035267;28;20233;-11
2022/08/25 08:31:13;;;;;;;7.38;4.47;;;32.10;47.10;;;;;;5035216;28;20021;-10
2022/08/25 08:33:39;;;;;;;5.72;4.22;;;32.30;45.90;;;;;;5035335;28;20032;-10
2022/08/25 08:36:11;;;;;;;7.15;4.15;;;32.50;45.20;;;;;;5035275;28;20025;-11
2022/08/25 08:38:39;;;;;;;6.18;4.35;;;32.70;45.20;;;;;;5035481;28;20052;-11
2022/08/25 08:42:16;;;;;;;7.65;4.32;;;32.70;45.40;;;;;;5034976;28;20026;-11
2022/08/25 08:44:45;;;;;;;5.78;4.20;;;32.80;45.00;;;;;;5033026;28;20486;-11
2022/08/25 08:47:43;;;;;;;5.30;4.13;;;32.90;44.50;;;;;;5033643;28;20026;-10
2022/08/25 08:50:46;;;;;;;4.90;4.28;;;33.10;44.20;;;;;;5032833;28;20029;-11
2022/08/25 08:53:18;;;;;;;;;;;33.30;43.80;;;;;;5033305;28;20033;-11
2022/08/25 08:55:52;;;;;;;5.95;4.60;;;33.50;44.50;;;;;;5033703;28;19912;-11
2022/08/25 08:58:41;;;;;;;6.60;4.15;;;33.60;44.30;;;;;;5032798;28;20024;-11
2022/08/25 09:01:11;;;;;;;6.38;4.60;;;33.80;43.60;;;;;;5032162;28;20037;-11
2022/08/25 09:03:43;;;;;;;6.07;4.40;;;34.00;41.60;;;;;;5032769;28;20030;-11
2022/08/25 09:06:12;;;;;;;;;;;34.30;41.50;;;;;;5033010;28;20588;-11
2022/08/25 09:08:43;;;;;;;8.05;4.35;;;34.50;39.70;;;;;;5032671;28;20000;-10
2022/08/25 09:11:27;;;;;;;6.75;4.20;;;34.60;40.30;;;;;;5032271;28;20052;-10
2022/08/25 09:14:26;;;;;;;5.43;4.47;;;34.70;39.10;;;;;;5032538;28;20033;-11
2022/08/25 09:17:05;;;;;;;5.20;3.88;;;34.70;39.60;;;;;;5034665;28;20025;-11
2022/08/25 09:20:08;;;;;;;6.03;4.05;;;34.50;38.60;;;;;;5034404;28;20030;-10
2022/08/25 09:23:01;;;;;;;6.68;4.47;;;34.60;38.30;;;;;;5034435;28;20030;-10
2022/08/25 09:25:34;;;;;;;6.00;4.30;;;34.60;38.70;;;;;;5033227;28;20084;-11
2022/08/25 09:28:03;;;;;;;7.68;4.57;;;34.60;38.70;;;;;;5034263;28;20506;-11
2022/08/25 09:30:56;;;;;;;9.27;4.50;;;34.50;38.50;;;;;;5034446;28;20035;-11
2022/08/25 09:33:24;;;;;;;5.35;4.35;;;34.10;39.20;;;;;;5034182;28;20034;-10
2022/08/25 09:35:53;;;;;;;6.38;4.05;;;33.90;39.90;;;;;;5034639;28;20056;-10
2022/08/25 09:38:19;;;;;;;6.32;4.45;;;34.00;40.60;;;;;;5034230;28;20034;-8
2022/08/25 09:40:50;;;;;;;6.07;4.20;;;34.40;39.60;;;;;;5033521;28;20022;-10
2022/08/25 09:43:32;;;;;;;7.57;4.10;;;34.40;39.80;;;;;;5034354;28;20021;-10
2022/08/25 09:46:01;;;;;;;7.40;4.40;;;34.50;39.90;;;;;;5034388;28;20043;-11
2022/08/25 09:48:42;;;;;;;7.22;3.92;;;34.90;38.30;;;;;;5033837;28;20029;-11
2022/08/25 09:51:30;;;;;;;7.15;4.00;;;35.20;38.10;;;;;;5033513;28;20034;-11
2022/08/25 09:54:04;;;;;;;6.07;4.20;;;35.40;37.50;;;;;;5034662;28;20030;-8
2022/08/25 09:56:32;;;;;;;5.75;4.00;;;35.50;37.60;;;;;;5033702;28;20108;-8
2022/08/25 09:59:33;;;;;;;7.47;4.30;;;35.20;37.80;;;;;;5033804;28;20033;-8
2022/08/25 10:02:02;;;;;;;6.97;4.40;;;34.90;37.30;;;;;;5034015;28;20022;-9
2022/08/25 10:04:32;;;;;;;5.90;4.13;;;34.50;39.20;;;;;;5033966;28;20079;-9
2022/08/25 10:07:00;;;;;;;5.95;4.00;;;34.40;39.70;;;;;;5033472;28;20013;-8
2022/08/25 10:09:40;;;;;;;6.15;3.83;;;34.40;40.00;;;;;;5033810;28;20041;-9
2022/08/25 10:12:23;;;;;;;6.07;4.00;;;34.70;39.40;;;;;;5033238;28;20036;-11
2022/08/25 10:14:49;;;;;;;7.32;4.30;;;34.90;39.10;;;;;;5033327;28;20055;-11
2022/08/25 10:17:29;;;;;;;6.00;3.90;;;35.20;39.00;;;;;;5033781;28;20017;-11
2022/08/25 10:20:17;;;;;;;5.38;4.05;;;35.50;38.50;;;;;;5033866;28;20044;-11
2022/08/25 10:22:43;;;;;;;5.57;4.30;;;35.70;37.90;;;;;;5033711;28;20109;-11
2022/08/25 10:25:16;;;;;;;5.97;4.10;;;36.10;36.70;;;;;;5033120;28;20576;-11
2022/08/25 10:28:26;;;;;;;6.88;4.40;;;36.40;36.70;;;;;;5033339;28;20052;-11
2022/08/25 10:31:08;;;;;;;6.60;4.13;;;37.00;35.40;;;;;;5030883;28;20046;-10
2022/08/25 10:34:04;;;;;;;6.20;3.85;;;37.30;35.80;;;;;;5031343;28;20413;-10
2022/08/25 10:37:05;;;;;;;10.73;4.03;;;37.50;35.80;;;;;;5031203;28;20018;-10
2022/08/25 10:39:43;;;;;;;7.20;4.55;;;37.80;35.20;;;;;;5031048;28;20048;-11
2022/08/25 10:42:17;;;;;;;6.13;3.67;;;38.00;34.30;;;;;;5031103;28;20548;-10
2022/08/25 10:48:20;;;;;;;10.32;4.25;;;37.50;33.60;;;;;;5031425;28;20036;-9
2022/08/25 10:50:51;;;;;;;5.53;3.80;;;36.90;34.90;;;;;;5030788;28;20030;-11
2022/08/25 10:53:30;;;;;;;6.20;3.80;;;36.80;35.50;;;;;;5030944;28;20037;-10
2022/08/25 10:55:59;;;;;;;6.03;4.00;;;36.90;35.20;;;;;;5030976;28;20032;-11
2022/08/25 10:58:45;;;;;;;5.90;3.72;;;37.20;34.70;;;;;;5030792;28;20112;-10
2022/08/25 11:01:36;;;;;;;4.18;3.45;;;37.50;34.30;;;;;;5030706;28;20025;-10
2022/08/25 11:04:09;;;;;;;7.57;3.58;;;38.20;34.10;;;;;;5031309;28;20115;-10
2022/08/25 11:06:42;;;;;;;5.03;3.85;;;38.70;32.90;;;;;;5033109;28;20033;-10
2022/08/25 11:09:14;;;;;;;4.68;4.00;;;39.30;32.10;;;;;;5032946;28;20051;-11
2022/08/25 11:12:00;;;;;;;;;;;39.60;31.40;;;;;;5033708;28;20474;-10
2022/08/25 11:14:35;;;;;;;4.78;3.83;;;39.60;31.60;;;;;;5033194;28;19955;-11
2022/08/25 11:17:16;;;;;;;4.85;3.90;;;39.30;31.50;;;;;;5032783;28;20167;-11
2022/08/25 11:19:55;;;;;;;6.60;3.83;;;39.50;31.00;;;;;;5032837;28;20038;-10
2022/08/25 11:22:34;;;;;;;4.30;3.40;;;39.70;30.40;;;;;;5032884;28;20025;-11
2022/08/25 11:25:39;;;;;;;6.20;3.92;;;39.80;30.60;;;;;;5036613;28;20036;-10
2022/08/25 11:28:32;;;;;;;4.53;3.30;;;40.20;29.80;;;;;;5034025;28;20501;-11
2022/08/25 11:31:01;;;;;;;4.72;3.30;;;40.00;30.70;;;;;;5024143;28;20037;-10
2022/08/25 11:33:29;;;;;;;5.00;3.53;;;40.00;31.20;;;;;;5034600;28;20037;-10
2022/08/25 11:36:13;;;;;;;4.03;3.45;;;40.20;31.30;;;;;;5034285;28;20053;-10
2022/08/25 11:39:00;;;;;;;9.27;4.20;;;40.50;30.60;;;;;;5034397;28;20034;-12
2022/08/25 11:41:52;;;;;;;3.67;3.30;;;40.70;29.90;;;;;;5034318;28;20056;-11
2022/08/25 11:44:55;;;;;;;6.82;3.97;;;40.60;30.20;;;;;;5034293;28;20038;-11
2022/08/25 11:47:26;;;;;;;10.25;4.15;;;40.80;29.60;;;;;;5034661;28;20079;-10
2022/08/25 11:50:03;;;;;;;14.60;4.60;;;40.80;29.20;;;;;;5034004;28;20417;-11
2022/08/25 11:52:44;;;;;;;5.53;3.90;;;40.50;29.80;;;;;;5034133;28;20292;-11
2022/08/25 11:55:15;;;;;;;8.40;3.40;;;40.30;29.50;;;;;;5033969;28;20037;-11
2022/08/25 11:57:44;;;;;;;3.45;3.03;;;40.00;30.20;;;;;;5034572;28;20029;-11
2022/08/25 12:00:18;;;;;;;7.55;4.00;;;39.90;30.40;;;;;;5033904;28;20025;-11
2022/08/25 12:02:46;;;;;;;3.90;3.20;;;39.80;30.50;;;;;;5033909;28;20033;-10
2022/08/25 12:05:18;;;;;;;4.95;3.40;;;39.60;31.20;;;;;;5010503;28;20101;-11
2022/08/25 12:08:37;;;;;;;4.38;3.50;;;40.00;30.30;;;;;;4996766;28;20108;-10
2022/08/25 12:11:03;;;;;;;7.00;3.55;;;40.50;30.20;;;;;;4996127;28;20109;-10
2022/08/25 12:13:50;;;;;;;4.35;3.28;;;41.20;29.80;;;;;;4996353;28;20494;-11
2022/08/25 12:16:34;;;;;;;6.43;3.50;;;41.50;28.60;;;;;;4997217;28;20030;-10
2022/08/25 12:19:21;;;;;;;4.68;3.65;;;41.40;29.30;;;;;;4996084;28;20098;-11
2022/08/25 12:21:48;;;;;;;5.43;3.50;;;41.20;29.00;;;;;;4996420;28;20041;-10
2022/08/25 12:24:18;;;;;;;6.10;3.58;;;40.90;29.10;;;;;;4996450;28;20034;-11
2022/08/25 12:26:47;;;;;;;6.85;3.70;;;40.10;29.80;;;;;;4996096;28;20027;-10
2022/08/25 12:29:15;;;;;;;7.40;4.00;;;39.40;30.60;;;;;;5024841;28;20080;-11
2022/08/25 12:31:57;;;;;;;4.53;3.08;;;39.00;31.40;;;;;;5035973;28;20374;-11
2022/08/25 12:34:26;;;;;;;;;;;38.90;32.00;;;;;;5034988;28;20035;-11
2022/08/25 12:37:00;;;;;;;4.35;3.33;;;39.20;31.70;;;;;;5033724;28;19905;-10
2022/08/25 12:39:34;;;;;;;5.38;3.20;;;39.90;30.70;;;;;;5035567;28;20429;-10
2022/08/25 12:42:04;;;;;;;3.63;3.10;;;40.50;29.20;;;;;;5034016;28;20072;-10
2022/08/25 12:44:38;;;;;;;5.55;3.60;;;40.90;29.00;;;;;;5035155;28;20108;-10
2022/08/25 12:47:16;;;;;;;5.43;3.17;;;41.40;27.90;;;;;;5034938;28;20025;-10
2022/08/25 12:49:42;;;;;;;5.15;3.47;;;41.30;28.40;;;;;;5034990;28;20040;-11
2022/08/25 12:52:17;;;;;;;6.13;3.72;;;41.10;28.70;;;;;;5034904;28;20079;-10
2022/08/25 12:54:58;;;;;;;5.47;3.60;;;41.10;28.90;;;;;;5035004;28;20397;-11
2022/08/25 12:57:48;;;;;;;4.63;3.22;;;41.20;28.70;;;;;;5034980;28;20469;-10
2022/08/25 13:00:22;;;;;;;6.82;3.53;;;41.10;28.40;;;;;;5035186;28;20071;-10
2022/08/25 13:03:12;;;;;;;5.88;3.40;;;41.20;28.60;;;;;;5034641;28;20600;-9
2022/08/25 13:06:00;;;;;;;6.45;3.60;;;41.40;28.40;;;;;;5035266;28;20033;-11
2022/08/25 13:08:57;;;;;;;4.88;3.17;;;41.40;28.10;;;;;;5034908;28;20025;-10
2022/08/25 13:11:51;;;;;;;4.97;3.20;;;41.30;28.30;;;;;;5034611;28;20584;-11
2022/08/25 13:14:52;;;;;;;4.35;3.05;;;40.90;28.70;;;;;;5034498;28;20032;-11
2022/08/25 13:17:30;;;;;;;16.60;3.87;;;40.90;29.10;;;;;;5016085;28;20088;-11
2022/08/25 13:20:14;;;;;;;4.95;3.20;;;41.20;28.80;;;;;;5032505;28;20040;-11
2022/08/25 13:22:45;;;;;;;26.10;4.78;;;41.50;27.90;;;;;;5032304;28;20107;-11